createdAt,value
2023-07-03T00:00:07.365Z,1.04
2023-07-03T00:02:08.246Z,1.04
2023-07-03T00:04:08.013Z,1.04
2023-07-03T00:05:08.179Z,1.04
2023-07-03T00:06:08.268Z,1.04
2023-07-03T00:07:08.419Z,1.04
2023-07-03T00:08:08.565Z,1.04
2023-07-03T00:09:08.702Z,1.04
2023-07-03T00:10:08.851Z,1.04
2023-07-03T00:11:09.039Z,1.04
2023-07-03T00:12:09.170Z,1.04
2023-07-03T00:13:09.323Z,1.04
2023-07-03T00:14:09.481Z,1.04
2023-07-03T00:15:09.620Z,1.04
2023-07-03T00:16:09.819Z,1.04
2023-07-03T00:17:09.943Z,1.04
2023-07-03T00:19:10.226Z,1.04
2023-07-03T00:20:10.388Z,1.04
2023-07-03T00:21:10.527Z,1.04
2023-07-03T00:22:10.694Z,1.04
2023-07-03T00:23:10.843Z,1.04
2023-07-03T00:24:10.992Z,1.04
2023-07-03T00:25:11.128Z,1.04
2023-07-03T00:26:11.297Z,1.04
2023-07-03T00:27:11.439Z,1.04
2023-07-03T00:28:11.596Z,1.04
2023-07-03T00:29:11.744Z,1.04
2023-07-03T00:30:11.903Z,1.04
2023-07-03T00:31:12.060Z,1.04
2023-07-03T00:32:12.241Z,1.04
2023-07-03T00:33:12.365Z,1.04
2023-07-03T00:34:12.510Z,1.04
2023-07-03T00:35:12.661Z,1.04
2023-07-03T00:36:12.823Z,1.04
2023-07-03T00:37:12.975Z,1.04
2023-07-03T00:38:13.125Z,1.04
2023-07-03T00:39:13.277Z,1.04
2023-07-03T00:40:13.408Z,1.04
2023-07-03T00:41:13.581Z,1.04
2023-07-03T00:42:13.723Z,1.04
2023-07-03T00:43:13.900Z,1.04
2023-07-03T00:44:14.033Z,1.04
2023-07-03T00:45:14.212Z,1.04
2023-07-03T00:46:14.368Z,1.04
2023-07-03T00:47:14.488Z,1.04
2023-07-03T00:48:14.641Z,1.04
2023-07-03T00:49:14.795Z,1.04
2023-07-03T00:50:14.965Z,1.04
2023-07-03T00:51:15.084Z,1.04
2023-07-03T00:52:15.248Z,1.04
2023-07-03T00:53:16.143Z,1.04
2023-07-03T00:54:15.511Z,1.04
2023-07-03T00:55:15.655Z,1.04
2023-07-03T00:56:15.798Z,1.04
2023-07-03T00:57:15.949Z,1.04
2023-07-03T00:58:16.113Z,1.04
2023-07-03T00:59:16.271Z,1.04
2023-07-03T01:00:16.405Z,1.04
2023-07-03T01:01:16.618Z,1.04
2023-07-03T01:03:16.868Z,1.04
2023-07-03T01:04:17.113Z,1.04
2023-07-03T01:05:17.250Z,1.04
2023-07-03T01:06:17.304Z,1.04
2023-07-03T01:07:17.412Z,1.04
2023-07-03T01:08:17.578Z,1.04
2023-07-03T01:09:17.714Z,1.04
2023-07-03T01:10:17.871Z,1.04
2023-07-03T01:11:18.008Z,1.04
2023-07-03T01:12:18.165Z,1.04
2023-07-03T01:13:18.334Z,1.04
2023-07-03T01:14:18.462Z,1.04
2023-07-03T01:15:18.666Z,1.04
2023-07-03T01:16:18.809Z,1.04
2023-07-03T01:17:18.936Z,1.04
2023-07-03T01:18:19.089Z,1.04
2023-07-03T01:19:19.240Z,1.04
2023-07-03T01:20:19.385Z,1.04
2023-07-03T01:21:19.548Z,1.04
2023-07-03T01:22:19.741Z,1.04
2023-07-03T01:23:20.309Z,1.04
2023-07-03T01:25:20.151Z,1.04
2023-07-03T01:26:20.301Z,1.04
2023-07-03T01:27:20.504Z,1.04
2023-07-03T01:28:20.624Z,1.04
2023-07-03T01:29:20.780Z,1.04
2023-07-03T01:30:20.927Z,1.04
2023-07-03T01:31:21.078Z,1.04
2023-07-03T01:32:21.284Z,1.04
2023-07-03T01:33:21.376Z,1.04
2023-07-03T01:34:21.519Z,1.04
2023-07-03T01:35:21.692Z,1.04
2023-07-03T01:36:21.824Z,1.04
2023-07-03T01:37:21.991Z,1.04
2023-07-03T01:38:22.138Z,1.04
2023-07-03T01:39:22.278Z,1.04
2023-07-03T01:40:22.436Z,1.04
2023-07-03T01:41:22.572Z,1.04
2023-07-03T01:42:22.738Z,1.04
2023-07-03T01:43:22.888Z,1.04
2023-07-03T01:44:23.037Z,1.04
2023-07-03T01:45:23.208Z,1.04
2023-07-03T01:46:24.540Z,1.04
2023-07-03T01:48:24.175Z,1.04
2023-07-03T01:50:24.655Z,1.04
2023-07-03T01:52:24.240Z,1.04
2023-07-03T01:53:24.368Z,1.04
2023-07-03T01:54:24.543Z,1.04
2023-07-03T01:55:24.657Z,1.04
2023-07-03T01:56:24.816Z,1.04
2023-07-03T01:57:24.972Z,1.04
2023-07-03T01:58:25.143Z,1.04
2023-07-03T01:59:25.308Z,1.04
2023-07-03T02:00:25.431Z,1.04
2023-07-03T02:01:25.599Z,1.04
2023-07-03T02:02:25.850Z,1.04
2023-07-03T02:03:25.972Z,1.04
2023-07-03T02:04:26.059Z,1.04
2023-07-03T02:05:26.142Z,1.04
2023-07-03T02:06:26.278Z,1.04
2023-07-03T02:07:26.445Z,1.04
2023-07-03T02:08:26.589Z,1.04
2023-07-03T02:09:26.714Z,1.04
2023-07-03T02:10:26.842Z,2
2023-07-03T02:11:27.010Z,2
2023-07-03T02:12:27.133Z,2
2023-07-03T02:13:27.332Z,2
2023-07-03T02:14:27.450Z,2
2023-07-03T02:15:27.585Z,2
2023-07-03T02:16:27.790Z,2
2023-07-03T02:17:27.900Z,3.04
2023-07-03T02:18:28.054Z,3.04
2023-07-03T02:19:28.234Z,3.04
2023-07-03T02:20:28.387Z,3.04
2023-07-03T02:21:28.506Z,4
2023-07-03T02:22:28.608Z,4
2023-07-03T02:23:28.765Z,5.04
2023-07-03T02:24:29.048Z,6
2023-07-03T02:25:29.090Z,6
2023-07-03T02:26:29.222Z,7.04
2023-07-03T02:27:29.369Z,8
2023-07-03T02:28:29.511Z,9.04
2023-07-03T02:29:29.685Z,11.04
2023-07-03T02:30:29.825Z,12
2023-07-03T02:31:30.038Z,14
2023-07-03T02:32:30.151Z,15.04
2023-07-03T02:33:30.273Z,18
2023-07-03T02:34:30.449Z,20
2023-07-03T02:35:30.609Z,23.04
2023-07-03T02:36:30.793Z,26
2023-07-03T02:37:30.961Z,30
2023-07-03T02:38:31.064Z,34
2023-07-03T02:39:31.192Z,39.04
2023-07-03T02:40:31.354Z,44
2023-07-03T02:41:31.498Z,51.04
2023-07-03T02:42:31.663Z,57.04
2023-07-03T02:43:31.819Z,66
2023-07-03T02:44:31.955Z,73.04
2023-07-03T02:45:32.103Z,81.04
2023-07-03T02:46:32.293Z,91.04
2023-07-03T02:47:32.496Z,103.04
2023-07-03T02:48:33.249Z,115.04
2023-07-03T02:50:32.872Z,141.04
2023-07-03T02:51:33.036Z,154
2023-07-03T02:52:33.739Z,166.08
2023-07-03T02:54:33.925Z,195.04
2023-07-03T02:56:34.190Z,231.04
2023-07-03T02:58:34.489Z,270.08
2023-07-03T03:00:34.679Z,317.12
2023-07-03T03:02:35.083Z,365.12
2023-07-03T03:04:34.913Z,404.16
2023-07-03T03:05:34.999Z,430.08
2023-07-03T03:06:35.158Z,453.12
2023-07-03T03:07:35.299Z,477.12
2023-07-03T03:08:35.462Z,505.28
2023-07-03T03:09:35.620Z,529.28
2023-07-03T03:10:35.747Z,552
2023-07-03T03:12:36.065Z,607.04
2023-07-03T03:13:36.219Z,632
2023-07-03T03:14:36.372Z,663.04
2023-07-03T03:15:36.518Z,701.44
2023-07-03T03:16:36.705Z,735.36
2023-07-03T03:17:36.856Z,770.56
2023-07-03T03:18:36.969Z,807.04
2023-07-03T03:19:37.114Z,854.4
2023-07-03T03:20:37.273Z,890.24
2023-07-03T03:21:37.396Z,929.28
2023-07-03T03:22:37.538Z,972.16
2023-07-03T03:23:37.704Z,1004.16
2023-07-03T03:24:37.842Z,1037.44
2023-07-03T03:25:37.980Z,1082.24
2023-07-03T03:26:38.151Z,1120
2023-07-03T03:27:38.294Z,1162.24
2023-07-03T03:28:38.441Z,1211.52
2023-07-03T03:29:38.592Z,1246.08
2023-07-03T03:30:38.804Z,1275.52
2023-07-03T03:32:39.115Z,1470.72
2023-07-03T03:33:39.222Z,1533.44
2023-07-03T03:34:39.352Z,1642.24
2023-07-03T03:35:39.509Z,1752.32
2023-07-03T03:36:39.710Z,1854.72
2023-07-03T03:37:39.822Z,1966.08
2023-07-03T03:38:39.956Z,2022.4
2023-07-03T03:39:40.115Z,2076.16
2023-07-03T03:40:40.290Z,2138.88
2023-07-03T03:41:40.421Z,2190.08
2023-07-03T03:42:40.559Z,2236.16
2023-07-03T03:43:40.716Z,2293.76
2023-07-03T03:44:40.866Z,2329.6
2023-07-03T03:45:40.978Z,2360.32
2023-07-03T03:46:41.139Z,2412.8
2023-07-03T03:47:41.327Z,2497.28
2023-07-03T03:48:41.547Z,2592
2023-07-03T03:49:41.606Z,2652.16
2023-07-03T03:51:41.911Z,2777.6
2023-07-03T03:52:42.042Z,2872.32
2023-07-03T03:53:42.145Z,2961.92
2023-07-03T03:54:42.285Z,3087.36
2023-07-03T03:55:42.436Z,3161.6
2023-07-03T03:56:42.604Z,3284.48
2023-07-03T03:57:42.741Z,3415.04
2023-07-03T03:58:42.891Z,3543.04
2023-07-03T03:59:42.979Z,3658.24
2023-07-03T04:00:43.129Z,3727.36
2023-07-03T04:01:43.393Z,3745.28
2023-07-03T04:03:46.383Z,3847.68
2023-07-03T04:05:44.345Z,4188.16
2023-07-03T04:07:44.131Z,4390.4
2023-07-03T04:08:44.282Z,4431.36
2023-07-03T04:09:44.417Z,4526.08
2023-07-03T04:10:44.580Z,4618.24
2023-07-03T04:11:44.776Z,4687.36
2023-07-03T04:12:44.977Z,4787.2
2023-07-03T04:13:45.168Z,4920.32
2023-07-03T04:14:45.308Z,5084.16
2023-07-03T04:15:45.591Z,5145.6
2023-07-03T04:16:45.865Z,5094.4
2023-07-03T04:17:45.937Z,5071.36
2023-07-03T04:18:46.045Z,4971.52
2023-07-03T04:19:46.184Z,5030.4
2023-07-03T04:20:46.332Z,5135.36
2023-07-03T04:21:46.484Z,5232.64
2023-07-03T04:22:46.631Z,5278.72
2023-07-03T04:23:46.786Z,5335.04
2023-07-03T04:24:46.938Z,5370.88
2023-07-03T04:25:47.098Z,5386.24
2023-07-03T04:26:47.247Z,5401.6
2023-07-03T04:27:47.392Z,5416.96
2023-07-03T04:28:47.551Z,5529.6
2023-07-03T04:29:47.685Z,5632
2023-07-03T04:30:47.856Z,5754.88
2023-07-03T04:31:48.031Z,5795.84
2023-07-03T04:32:48.185Z,5811.2
2023-07-03T04:33:48.302Z,5806.08
2023-07-03T04:34:48.469Z,5831.68
2023-07-03T04:35:48.796Z,5944.32
2023-07-03T04:37:48.922Z,5985.28
2023-07-03T04:38:49.056Z,5939.2
2023-07-03T04:39:49.221Z,6082.56
2023-07-03T04:40:49.411Z,6231.04
2023-07-03T04:41:49.538Z,6159.36
2023-07-03T04:42:49.682Z,6123.52
2023-07-03T04:43:49.834Z,6210.56
2023-07-03T04:44:50.026Z,6164.48
2023-07-03T04:45:50.379Z,5908.48
2023-07-03T04:46:50.279Z,5857.28
2023-07-03T04:47:50.459Z,6118.4
2023-07-03T04:48:50.608Z,6507.52
2023-07-03T04:49:50.836Z,6748.16
2023-07-03T04:50:51.209Z,6799.36
2023-07-03T04:51:51.044Z,6707.2
2023-07-03T04:52:51.185Z,6671.36
2023-07-03T04:53:51.341Z,6681.6
2023-07-03T04:54:51.532Z,6835.2
2023-07-03T04:55:52.101Z,7086.08
2023-07-03T04:56:51.814Z,7311.36
2023-07-03T04:57:51.973Z,7418.88
2023-07-03T04:58:52.115Z,7603.2
2023-07-03T04:59:52.258Z,7884.8
2023-07-03T05:00:52.408Z,7992.32
2023-07-03T05:01:52.681Z,8207.36
2023-07-03T05:02:52.870Z,8422.399
2023-07-03T05:03:52.954Z,9287.68
2023-07-03T05:04:53.087Z,8535.04
2023-07-03T05:05:53.429Z,8371.2
2023-07-03T05:06:53.311Z,8243.2
2023-07-03T05:07:53.833Z,8125.44
2023-07-03T05:08:53.586Z,8079.36
2023-07-03T05:09:53.761Z,8294.4
2023-07-03T05:10:53.878Z,8560.64
2023-07-03T05:11:54.029Z,8632.319
2023-07-03T05:12:54.217Z,8729.6
2023-07-03T05:13:54.352Z,8744.96
2023-07-03T05:14:54.509Z,8878.08
2023-07-03T05:15:54.732Z,8939.52
2023-07-03T05:16:54.820Z,9221.12
2023-07-03T05:17:54.987Z,9784.319
2023-07-03T05:18:55.111Z,9978.88
2023-07-03T05:19:55.251Z,10506.24
2023-07-03T05:20:55.913Z,11847.68
2023-07-03T05:22:55.662Z,11509.76
2023-07-03T05:23:55.824Z,11560.96
2023-07-03T05:24:55.960Z,11816.96
2023-07-03T05:25:56.118Z,12748.8
2023-07-03T05:26:56.263Z,15534.08
2023-07-03T05:27:56.383Z,12974.08
2023-07-03T05:28:56.531Z,12871.68
2023-07-03T05:29:56.692Z,18831.36
2023-07-03T05:30:56.869Z,12216.319
2023-07-03T05:31:56.983Z,11632.64
2023-07-03T05:32:57.184Z,11683.84
2023-07-03T05:33:57.287Z,14796.8
2023-07-03T05:34:57.445Z,12349.439
2023-07-03T05:35:57.678Z,12093.439
2023-07-03T05:36:57.751Z,12359.68
2023-07-03T05:37:57.892Z,12922.88
2023-07-03T05:39:58.214Z,12267.52
2023-07-03T05:40:58.350Z,15728.64
2023-07-03T05:41:58.497Z,18135.04
2023-07-03T05:42:58.638Z,11397.12
2023-07-03T05:43:58.808Z,13793.279
2023-07-03T05:44:58.947Z,16732.16
2023-07-03T05:45:59.102Z,21647.36
2023-07-03T05:46:59.325Z,21360.64
2023-07-03T05:47:59.479Z,21053.44
2023-07-03T05:48:59.563Z,19015.68
2023-07-03T05:49:59.859Z,20387.84
2023-07-03T05:50:59.869Z,20674.56
2023-07-03T05:52:00.015Z,21565.44
2023-07-03T05:53:00.139Z,22978.56
2023-07-03T05:54:00.337Z,26849.28
2023-07-03T05:55:00.465Z,29429.76
2023-07-03T05:56:00.607Z,31170.56
2023-07-03T05:57:00.779Z,23203.84
2023-07-03T05:58:00.967Z,23470.08
2023-07-03T05:59:01.104Z,29798.4
2023-07-03T06:00:01.217Z,29061.12
2023-07-03T06:01:01.473Z,13844.479
2023-07-03T06:02:01.554Z,13107.199
2023-07-03T06:03:01.777Z,13352.96
2023-07-03T06:04:01.945Z,13834.239
2023-07-03T06:05:02.125Z,14325.76
2023-07-03T06:06:02.155Z,15790.08
2023-07-03T06:07:02.298Z,16558.08
2023-07-03T06:08:02.444Z,16660.48
2023-07-03T06:09:02.573Z,16107.52
2023-07-03T06:10:02.723Z,16906.24
2023-07-03T06:11:02.853Z,16967.68
2023-07-03T06:12:03.011Z,17336.32
2023-07-03T06:13:03.155Z,17192.96
2023-07-03T06:14:03.321Z,17879.04
2023-07-03T06:15:03.444Z,17981.44
2023-07-03T06:16:03.615Z,19896.32
2023-07-03T06:17:03.824Z,19025.92
2023-07-03T06:18:03.983Z,18595.84
2023-07-03T06:19:03.998Z,18329.6
2023-07-03T06:20:04.143Z,19066.88
2023-07-03T06:21:04.285Z,17971.2
2023-07-03T06:22:04.394Z,17653.76
2023-07-03T06:23:04.547Z,17776.64
2023-07-03T06:24:04.705Z,17838.08
2023-07-03T06:25:04.850Z,18923.52
2023-07-03T06:26:05.017Z,17786.88
2023-07-03T06:27:05.183Z,17797.12
2023-07-03T06:28:05.322Z,17807.36
2023-07-03T06:29:05.480Z,18534.4
2023-07-03T06:30:05.652Z,20480
2023-07-03T06:31:05.829Z,21012.48
2023-07-03T06:32:05.931Z,19578.88
2023-07-03T06:33:06.151Z,18841.6
2023-07-03T06:34:06.238Z,18831.36
2023-07-03T06:35:06.919Z,20183.04
2023-07-03T06:36:06.564Z,19834.88
2023-07-03T06:37:06.723Z,17582.08
2023-07-03T06:38:06.856Z,17254.4
2023-07-03T06:39:07.008Z,18114.56
2023-07-03T06:40:07.157Z,19312.64
2023-07-03T06:41:07.296Z,17838.08
2023-07-03T06:42:07.490Z,18759.68
2023-07-03T06:43:07.594Z,19036.16
2023-07-03T06:44:07.699Z,20039.68
2023-07-03T06:45:07.867Z,21360.64
2023-07-03T06:47:08.251Z,21913.6
2023-07-03T06:48:08.317Z,22384.64
2023-07-03T06:49:08.428Z,24330.24
2023-07-03T06:50:08.621Z,26992.64
2023-07-03T06:51:08.736Z,25026.56
2023-07-03T06:52:08.890Z,29716.48
2023-07-03T06:53:09.040Z,23777.28
2023-07-03T06:54:09.194Z,26972.16
2023-07-03T06:55:09.329Z,28508.16
2023-07-03T06:56:09.488Z,30064.64
2023-07-03T06:57:09.657Z,29265.92
2023-07-03T06:58:09.793Z,29491.2
2023-07-03T06:59:09.971Z,35737.6
2023-07-03T07:00:10.086Z,30863.36
2023-07-03T07:01:10.234Z,44195.84
2023-07-03T07:02:10.429Z,30494.72
2023-07-03T07:03:10.611Z,34426.88
2023-07-03T07:04:10.958Z,55173.12
2023-07-03T07:05:10.918Z,39772.16
2023-07-03T07:06:11.173Z,29368.32
2023-07-03T07:07:11.161Z,30126.08
2023-07-03T07:08:11.318Z,26746.88
2023-07-03T07:09:11.477Z,28733.44
2023-07-03T07:10:11.607Z,35102.72
2023-07-03T07:11:11.783Z,33443.84
2023-07-03T07:12:11.917Z,29532.16
2023-07-03T07:13:12.078Z,30146.56
2023-07-03T07:14:12.251Z,31723.52
2023-07-03T07:15:12.451Z,33300.48
2023-07-03T07:16:12.539Z,27463.68
2023-07-03T07:17:12.699Z,31723.52
2023-07-03T07:18:12.888Z,80035.84
2023-07-03T07:19:12.987Z,51486.72
2023-07-03T07:20:13.147Z,36044.8
2023-07-03T07:21:13.281Z,33423.36
2023-07-03T07:22:13.424Z,36024.32
2023-07-03T07:23:13.688Z,46653.44
2023-07-03T07:24:13.697Z,50298.88
2023-07-03T07:25:13.870Z,41512.96
2023-07-03T07:26:14.003Z,54763.52
2023-07-03T07:27:14.152Z,77701.12
2023-07-03T07:28:14.266Z,55500.8
2023-07-03T07:29:14.400Z,70819.84
2023-07-03T07:30:14.513Z,40796.16
2023-07-03T07:31:14.667Z,37273.6
2023-07-03T07:32:14.810Z,55255.04
2023-07-03T07:33:14.943Z,42434.56
2023-07-03T07:34:15.108Z,76881.92
2023-07-03T07:35:15.265Z,62464
2023-07-03T07:36:15.409Z,90521.6
2023-07-03T07:37:15.520Z,66109.44
2023-07-03T07:38:15.676Z,42926.08
2023-07-03T07:39:15.865Z,41861.12
2023-07-03T07:40:15.969Z,80199.68
2023-07-03T07:41:16.117Z,42270.72
2023-07-03T07:42:16.282Z,44441.6
2023-07-03T07:43:16.432Z,32563.2
2023-07-03T07:44:16.572Z,46817.28
2023-07-03T07:45:17.365Z,53985.28
2023-07-03T07:47:17.049Z,73932.8
2023-07-03T07:48:17.641Z,74833.92
2023-07-03T07:50:18.574Z,56483.84
2023-07-03T07:51:18.425Z,73482.24
2023-07-03T07:52:18.381Z,89948.16
2023-07-03T07:54:18.761Z,54108.16
2023-07-03T07:56:18.304Z,70123.52
2023-07-03T07:57:18.462Z,48865.28
2023-07-03T07:58:18.520Z,52101.12
2023-07-03T07:59:18.657Z,94945.28
2023-07-03T08:00:18.761Z,89784.32
2023-07-03T08:01:19.013Z,25763.84
2023-07-03T08:02:19.105Z,90521.6
2023-07-03T08:03:19.233Z,92160
2023-07-03T08:04:19.476Z,95191.04
2023-07-03T08:05:19.575Z,49889.28
2023-07-03T08:06:19.656Z,95354.88
2023-07-03T08:07:19.825Z,54190.08
2023-07-03T08:08:19.991Z,80855.04
2023-07-03T08:09:20.138Z,36556.8
2023-07-03T08:10:20.308Z,94863.36
2023-07-03T08:11:20.436Z,99205.12
2023-07-03T08:12:20.577Z,104611.84
2023-07-03T08:13:20.748Z,77619.2
2023-07-03T08:14:20.937Z,35594.24
2023-07-03T08:15:21.058Z,30085.12
2023-07-03T08:16:21.199Z,30658.56
2023-07-03T08:17:21.381Z,35041.28
2023-07-03T08:18:21.505Z,27648
2023-07-03T08:19:21.665Z,27852.8
2023-07-03T08:20:21.805Z,103710.72
2023-07-03T08:21:21.942Z,29286.4
2023-07-03T08:22:22.098Z,75776
2023-07-03T08:23:22.327Z,39669.76
2023-07-03T08:24:22.384Z,29306.88
2023-07-03T08:25:22.465Z,41226.24
2023-07-03T08:26:22.625Z,87326.72
2023-07-03T08:27:22.781Z,35287.04
2023-07-03T08:28:22.937Z,25047.04
2023-07-03T08:29:23.073Z,21667.84
2023-07-03T08:30:23.237Z,20183.04
2023-07-03T08:31:23.416Z,18780.16
2023-07-03T08:32:23.569Z,28938.24
2023-07-03T08:33:23.692Z,40017.92
2023-07-03T08:34:23.845Z,32460.8
2023-07-03T08:37:25.529Z,21442.56
2023-07-03T08:39:25.366Z,21995.52
2023-07-03T08:41:25.743Z,21258.24
2023-07-03T08:43:25.265Z,31805.44
2023-07-03T08:44:25.390Z,71270.4
2023-07-03T08:45:25.561Z,21749.76
2023-07-03T08:46:25.805Z,18411.52
2023-07-03T08:47:25.965Z,18165.76
2023-07-03T08:48:26.060Z,19640.32
2023-07-03T08:49:26.102Z,24207.36
2023-07-03T08:50:36.306Z,26214.4
2023-07-03T08:51:26.443Z,28938.24
2023-07-03T08:52:26.567Z,24637.44
2023-07-03T08:53:26.710Z,21340.16
2023-07-03T08:54:26.820Z,23040
2023-07-03T08:55:26.941Z,23838.72
2023-07-03T08:56:27.112Z,54886.4
2023-07-03T08:57:27.255Z,25518.08
2023-07-03T08:58:27.411Z,20920.32
2023-07-03T08:59:27.579Z,20940.8
2023-07-03T09:00:27.723Z,21626.88
2023-07-03T09:01:27.888Z,20920.32
2023-07-03T09:02:28.211Z,52305.92
2023-07-03T09:03:28.419Z,29921.28
2023-07-03T09:04:28.471Z,109199.36
2023-07-03T09:05:28.577Z,36003.84
2023-07-03T09:06:28.738Z,65454.08
2023-07-03T09:07:28.881Z,41308.16
2023-07-03T09:08:29.039Z,26275.84
2023-07-03T09:09:29.213Z,23982.08
2023-07-03T09:10:29.323Z,30638.08
2023-07-03T09:11:29.498Z,20971.52
2023-07-03T09:12:29.645Z,19496.96
2023-07-03T09:13:29.793Z,22487.04
2023-07-03T09:14:29.962Z,108298.23
2023-07-03T09:15:30.105Z,33177.6
2023-07-03T09:16:30.401Z,34918.4
2023-07-03T09:17:30.539Z,113377.28
2023-07-03T09:18:30.658Z,39936
2023-07-03T09:19:30.803Z,57753.6
2023-07-03T09:20:30.976Z,84049.92
2023-07-03T09:21:31.130Z,36597.76
2023-07-03T09:22:31.219Z,42639.36
2023-07-03T09:23:31.361Z,33669.12
2023-07-03T09:24:32.464Z,27750.4
2023-07-03T09:26:32.226Z,26726.4
2023-07-03T09:28:32.073Z,25313.28
2023-07-03T09:29:32.773Z,26152.96
2023-07-03T09:30:32.416Z,107642.88
2023-07-03T09:31:32.649Z,114524.16
2023-07-03T09:32:32.754Z,116490.23
2023-07-03T09:33:32.844Z,112148.48
2023-07-03T09:34:32.991Z,110018.55
2023-07-03T09:35:35.600Z,65945.6
2023-07-03T09:36:33.292Z,110919.68
2023-07-03T09:37:33.474Z,39669.76
2023-07-03T09:38:33.587Z,27361.28
2023-07-03T09:39:33.766Z,26685.44
2023-07-03T09:40:34.022Z,30167.04
2023-07-03T09:41:34.033Z,36331.52
2023-07-03T09:42:34.202Z,25743.36
2023-07-03T09:43:34.355Z,21667.84
2023-07-03T09:44:34.505Z,22118.4
2023-07-03T09:45:34.749Z,26337.28
2023-07-03T09:46:34.811Z,56688.64
2023-07-03T09:47:35.790Z,69713.92
2023-07-03T09:48:35.164Z,34795.52
2023-07-03T09:49:35.267Z,30515.2
2023-07-03T09:50:35.423Z,30760.96
2023-07-03T09:51:35.564Z,115343.36
2023-07-03T09:52:35.723Z,29696
2023-07-03T09:53:36.445Z,29818.88
2023-07-03T09:55:37.559Z,71024.64
2023-07-03T09:57:37.284Z,94863.36
2023-07-03T09:59:36.775Z,89866.23
2023-07-03T10:00:36.947Z,112721.91
2023-07-03T10:03:38.283Z,112967.68
2023-07-03T10:06:39.576Z,39403.52
2023-07-03T10:08:38.952Z,25579.52
2023-07-03T10:11:39.747Z,24330.24
2023-07-03T10:13:40.117Z,28528.64
2023-07-03T10:15:39.910Z,44032
2023-07-03T10:16:39.478Z,74301.44
2023-07-03T10:17:39.761Z,34283.52
2023-07-03T10:18:39.736Z,32870.4
2023-07-03T10:19:39.866Z,108625.91
2023-07-03T10:20:40.019Z,56893.44
2023-07-03T10:21:40.179Z,114933.76
2023-07-03T10:22:40.331Z,112230.4
2023-07-03T10:23:40.477Z,90193.92
2023-07-03T10:24:40.651Z,113704.96
2023-07-03T10:25:40.780Z,118046.72
2023-07-03T10:26:40.930Z,105922.55
2023-07-03T10:27:41.097Z,40693.76
2023-07-03T10:29:41.391Z,92160
2023-07-03T10:31:42.845Z,105676.8
2023-07-03T10:32:41.839Z,44810.24
2023-07-03T10:33:42.012Z,41861.12
2023-07-03T10:34:42.218Z,121569.27
2023-07-03T10:35:42.334Z,31928.32
2023-07-03T10:36:42.445Z,29224.96
2023-07-03T10:37:42.620Z,28979.2
2023-07-03T10:38:42.778Z,27381.76
2023-07-03T10:39:42.946Z,28651.52
2023-07-03T10:40:43.062Z,29143.04
2023-07-03T10:41:43.204Z,30986.24
2023-07-03T10:42:43.328Z,43704.32
2023-07-03T10:43:43.465Z,37273.6
2023-07-03T10:44:43.635Z,33423.36
2023-07-03T10:45:43.739Z,44195.84
2023-07-03T10:46:43.899Z,42680.32
2023-07-03T10:47:44.069Z,123289.59
2023-07-03T10:48:44.206Z,53248
2023-07-03T10:49:44.358Z,78110.72
2023-07-03T10:50:44.482Z,43253.76
2023-07-03T10:51:44.655Z,99696.64
2023-07-03T10:52:44.782Z,32522.24
2023-07-03T10:53:44.930Z,31662.08
2023-07-03T10:54:45.098Z,27688.96
2023-07-03T10:55:45.240Z,25702.4
2023-07-03T10:56:45.410Z,26890.24
2023-07-03T10:57:45.561Z,29040.64
2023-07-03T10:58:45.697Z,33546.24
2023-07-03T10:59:45.879Z,39280.64
2023-07-03T11:01:46.228Z,38871.04
2023-07-03T11:02:46.312Z,124682.23
2023-07-03T11:03:49.836Z,106823.68
2023-07-03T11:04:46.703Z,37683.2
2023-07-03T11:05:46.757Z,81879.04
2023-07-03T11:06:46.926Z,62423.04
2023-07-03T11:07:47.067Z,34938.88
2023-07-03T11:08:47.232Z,31457.28
2023-07-03T11:09:47.390Z,29368.32
2023-07-03T11:10:47.520Z,29388.8
2023-07-03T11:11:47.687Z,30187.52
2023-07-03T11:12:47.828Z,33751.04
2023-07-03T11:13:48.062Z,43376.64
2023-07-03T11:14:48.126Z,48496.64
2023-07-03T11:15:48.305Z,36536.32
2023-07-03T11:16:48.452Z,39424
2023-07-03T11:19:49.827Z,32931.84
2023-07-03T11:22:50.729Z,42065.92
2023-07-03T11:24:50.486Z,117227.52
2023-07-03T11:28:51.227Z,111984.64
2023-07-03T11:29:50.457Z,126648.32
2023-07-03T11:30:51.334Z,87572.48
2023-07-03T11:32:50.980Z,119930.88
2023-07-03T11:35:52.459Z,32931.84
2023-07-03T11:39:53.055Z,22446.08
2023-07-03T11:43:53.228Z,116981.76
2023-07-03T11:44:53.421Z,105676.8
2023-07-03T11:46:53.508Z,26214.4
2023-07-03T11:48:53.348Z,20756.48
2023-07-03T11:49:53.544Z,17172.48
2023-07-03T11:50:53.649Z,14458.88
2023-07-03T11:51:53.797Z,13045.76
2023-07-03T11:52:53.949Z,14161.92
2023-07-03T11:53:54.120Z,16609.28
2023-07-03T11:55:54.403Z,22097.92
2023-07-03T11:58:04.364Z,35102.72
2023-07-03T11:59:55.001Z,120258.55
2023-07-03T12:00:55.187Z,121323.52
2023-07-03T12:01:55.316Z,117309.44
2023-07-03T12:02:55.571Z,62504.96
2023-07-03T12:03:55.767Z,111984.64
2023-07-03T12:04:55.765Z,24309.76
2023-07-03T12:05:55.945Z,29941.76
2023-07-03T12:06:56.080Z,51855.36
2023-07-03T12:07:56.246Z,27443.2
2023-07-03T12:08:56.387Z,23982.08
2023-07-03T12:09:56.543Z,38502.4
2023-07-03T12:10:57.205Z,26931.2
2023-07-03T12:11:56.842Z,28590.08
2023-07-03T12:12:56.996Z,26992.64
2023-07-03T12:13:57.235Z,25579.52
2023-07-03T12:14:57.356Z,25067.52
2023-07-03T12:15:57.458Z,27013.12
2023-07-03T12:16:57.639Z,29655.04
2023-07-03T12:17:57.765Z,35717.12
2023-07-03T12:18:57.871Z,39137.28
2023-07-03T12:19:58.013Z,54845.44
2023-07-03T12:20:58.162Z,107479.04
2023-07-03T12:21:58.337Z,36147.2
2023-07-03T12:22:59.092Z,54804.48
2023-07-03T12:24:58.768Z,112721.91
2023-07-03T12:25:58.915Z,42393.6
2023-07-03T12:26:59.072Z,68403.2
2023-07-03T12:27:59.229Z,30986.24
2023-07-03T12:28:59.365Z,33198.08
2023-07-03T12:29:59.532Z,25169.92
2023-07-03T12:30:59.724Z,21934.08
2023-07-03T12:31:59.831Z,20920.32
2023-07-03T12:32:59.996Z,20838.4
2023-07-03T12:34:00.134Z,23326.72
2023-07-03T12:36:00.438Z,30371.84
2023-07-03T12:37:02.246Z,24576
2023-07-03T12:39:00.834Z,20930.56
2023-07-03T12:40:00.982Z,21217.28
2023-07-03T12:41:01.148Z,24657.92
2023-07-03T12:42:01.295Z,30494.72
2023-07-03T12:43:01.532Z,37888
2023-07-03T12:44:07.900Z,109608.96
2023-07-03T12:45:01.735Z,47267.84
2023-07-03T12:46:01.894Z,49889.28
2023-07-03T12:47:02.194Z,110919.68
2023-07-03T12:48:02.289Z,111820.8
2023-07-03T12:49:02.347Z,110755.84
2023-07-03T12:50:02.512Z,37539.84
2023-07-03T12:51:02.651Z,102154.23
2023-07-03T12:52:02.847Z,85852.16
2023-07-03T12:53:02.989Z,41062.4
2023-07-03T12:54:03.203Z,107397.12
2023-07-03T12:56:04.461Z,47144.96
2023-07-03T12:59:04.632Z,106414.08
2023-07-03T13:01:04.170Z,29368.32
2023-07-03T13:03:04.990Z,90030.08
2023-07-03T13:05:04.900Z,101826.55
2023-07-03T13:07:05.050Z,42516.48
2023-07-03T13:08:05.180Z,28897.28
2023-07-03T13:09:05.344Z,30310.4
2023-07-03T13:10:05.531Z,36413.44
2023-07-03T13:11:05.637Z,62832.64
2023-07-03T13:12:05.787Z,40243.2
2023-07-03T13:13:05.956Z,38297.6
2023-07-03T13:14:06.148Z,22999.04
2023-07-03T13:15:06.265Z,22241.28
2023-07-03T13:16:06.427Z,28651.52
2023-07-03T13:17:06.681Z,81510.4
2023-07-03T13:18:06.721Z,30863.36
2023-07-03T13:19:06.866Z,29102.08
2023-07-03T13:20:07.066Z,21790.72
2023-07-03T13:21:07.161Z,19886.08
2023-07-03T13:22:07.321Z,19548.16
2023-07-03T13:23:07.483Z,19865.6
2023-07-03T13:24:07.627Z,23592.96
2023-07-03T13:25:07.781Z,95354.88
2023-07-03T13:26:07.920Z,57384.96
2023-07-03T13:27:08.075Z,91340.8
2023-07-03T13:28:08.236Z,89456.64
2023-07-03T13:29:08.414Z,27955.2
2023-07-03T13:30:09.349Z,37437.44
2023-07-03T13:31:08.759Z,38707.2
2023-07-03T13:32:08.840Z,25620.48
2023-07-03T13:33:08.988Z,37355.52
2023-07-03T13:34:09.108Z,23265.28
2023-07-03T13:35:09.251Z,29388.8
2023-07-03T13:36:10.674Z,29757.44
2023-07-03T13:38:09.773Z,32378.88